createdAt,value
2019-01-08T00:00:09.923Z,99.99
2019-01-08T00:01:10.068Z,99.99
2019-01-08T00:02:10.179Z,99.99
2019-01-08T00:03:10.310Z,99.99
2019-01-08T00:04:10.460Z,99.99
2019-01-08T00:05:10.586Z,99.99
2019-01-08T00:06:10.706Z,99.99
2019-01-08T00:07:10.917Z,99.99
2019-01-08T00:08:10.967Z,99.99
2019-01-08T00:09:11.115Z,99.99
2019-01-08T00:10:11.220Z,99.99
2019-01-08T00:11:11.343Z,99.99
2019-01-08T00:12:11.504Z,99.88
2019-01-08T00:13:11.643Z,99.99
2019-01-08T00:14:11.786Z,99.63
2019-01-08T00:15:11.982Z,99.99
2019-01-08T00:16:12.021Z,99.84
2019-01-08T00:17:12.185Z,99.99
2019-01-08T00:18:12.324Z,99.99
2019-01-08T00:19:12.468Z,99.94
2019-01-08T00:20:12.581Z,99.94
2019-01-08T00:21:12.698Z,99.99
2019-01-08T00:22:12.836Z,99.94
2019-01-08T00:23:13.053Z,99.99
2019-01-08T00:24:13.085Z,99.99
2019-01-08T00:25:13.223Z,99.99
2019-01-08T00:26:13.337Z,99.99
2019-01-08T00:27:13.497Z,99.99
2019-01-08T00:28:13.650Z,99.99
2019-01-08T00:29:13.774Z,99.99
2019-01-08T00:30:13.950Z,99.99
2019-01-08T00:31:14.068Z,99.99
2019-01-08T00:32:14.130Z,99.99
2019-01-08T00:33:14.270Z,99.99
2019-01-08T00:34:14.431Z,99.99
2019-01-08T00:35:14.557Z,99.99
2019-01-08T00:36:14.684Z,99.99
2019-01-08T00:37:14.821Z,99.99
2019-01-08T00:38:14.937Z,99.99
2019-01-08T00:39:15.108Z,99.99
2019-01-08T00:40:15.248Z,99.99
2019-01-08T00:41:15.361Z,99.99
2019-01-08T00:42:15.494Z,99.99
2019-01-08T00:43:15.605Z,99.99
2019-01-08T00:44:15.734Z,99.99
2019-01-08T00:45:15.859Z,99.99
2019-01-08T00:46:16.005Z,99.99
2019-01-08T00:47:16.155Z,99.99
2019-01-08T00:48:16.326Z,99.99
2019-01-08T00:49:16.411Z,99.99
2019-01-08T00:50:16.530Z,99.99
2019-01-08T00:51:16.660Z,99.99
2019-01-08T00:52:16.811Z,99.99
2019-01-08T00:53:16.920Z,99.99
2019-01-08T00:54:21.544Z,99.99
2019-01-08T00:55:17.169Z,99.99
2019-01-08T00:56:17.427Z,99.99
2019-01-08T00:57:17.474Z,99.99
2019-01-08T00:58:17.583Z,99.99
2019-01-08T00:59:17.754Z,99.99
2019-01-08T01:00:17.832Z,99.99
2019-01-08T01:01:17.999Z,99.99
2019-01-08T01:02:18.130Z,99.99
2019-01-08T01:03:18.237Z,99.99
2019-01-08T01:04:18.456Z,99.99
2019-01-08T01:05:18.471Z,99.99
2019-01-08T01:06:18.623Z,99.99
2019-01-08T01:07:18.768Z,99.99
2019-01-08T01:08:18.897Z,99.99
2019-01-08T01:09:19.030Z,99.99
2019-01-08T01:10:19.143Z,99.99
2019-01-08T01:11:19.295Z,99.99
2019-01-08T01:12:19.447Z,99.99
2019-01-08T01:13:19.567Z,99.99
2019-01-08T01:14:19.669Z,99.99
2019-01-08T01:15:19.786Z,99.99
2019-01-08T01:16:19.927Z,99.99
2019-01-08T01:17:20.066Z,99.99
2019-01-08T01:18:20.159Z,99.99
2019-01-08T01:19:20.327Z,99.99
2019-01-08T01:20:20.485Z,99.99
2019-01-08T01:21:20.644Z,99.99
2019-01-08T01:22:20.719Z,99.99
2019-01-08T01:23:20.817Z,99.99
2019-01-08T01:24:20.967Z,99.99
2019-01-08T01:25:21.094Z,99.99
2019-01-08T01:26:21.244Z,99.99
2019-01-08T01:27:21.397Z,99.99
2019-01-08T01:28:21.505Z,99.99
2019-01-08T01:29:21.721Z,99.99
2019-01-08T01:30:21.766Z,99.99
2019-01-08T01:31:21.915Z,99.99
2019-01-08T01:32:22.044Z,99.99
2019-01-08T01:33:22.142Z,99.99
2019-01-08T01:34:22.266Z,99.99
2019-01-08T01:35:22.430Z,99.99
2019-01-08T01:36:22.565Z,99.99
2019-01-08T01:37:22.846Z,99.99
2019-01-08T01:38:22.785Z,99.99
2019-01-08T01:39:22.909Z,99.99
2019-01-08T01:40:23.080Z,99.99
2019-01-08T01:41:23.196Z,99.99
2019-01-08T01:42:23.339Z,99.99
2019-01-08T01:43:23.458Z,99.99
2019-01-08T01:44:23.585Z,99.99
2019-01-08T01:45:23.755Z,99.99
2019-01-08T01:46:23.844Z,99.99
2019-01-08T01:47:23.975Z,99.99
2019-01-08T01:48:24.099Z,99.99
2019-01-08T01:49:24.225Z,99.99
2019-01-08T01:50:24.357Z,99.99
2019-01-08T01:51:24.488Z,99.99
2019-01-08T01:52:24.634Z,99.99
2019-01-08T01:53:24.800Z,99.99
2019-01-08T01:54:24.854Z,99.84
2019-01-08T01:55:25.012Z,99.84
2019-01-08T01:56:25.154Z,99.99
2019-01-08T01:57:25.277Z,99.99
2019-01-08T01:58:25.409Z,99.99
2019-01-08T01:59:25.537Z,99.94
2019-01-08T02:00:25.690Z,99.63
2019-01-08T02:01:25.841Z,99.94
2019-01-08T02:02:26.009Z,99.73
2019-01-08T02:03:26.059Z,99.94
2019-01-08T02:04:26.187Z,99.99
2019-01-08T02:05:26.337Z,99.94
2019-01-08T02:06:26.449Z,99.73
2019-01-08T02:07:26.600Z,99.99
2019-01-08T02:08:26.695Z,99.84
2019-01-08T02:09:26.844Z,99.63
2019-01-08T02:10:27.133Z,99.94
2019-01-08T02:11:27.097Z,99.84
2019-01-08T02:12:27.232Z,99.94
2019-01-08T02:13:27.353Z,99.99
2019-01-08T02:14:27.523Z,99.99
2019-01-08T02:15:27.654Z,99.90
2019-01-08T02:16:27.791Z,99.84
2019-01-08T02:17:27.928Z,99.99
2019-01-08T02:18:28.082Z,99.99
2019-01-08T02:19:28.153Z,99.99
2019-01-08T02:20:28.295Z,99.99
2019-01-08T02:21:28.412Z,99.94
2019-01-08T02:22:28.566Z,99.99
2019-01-08T02:23:28.657Z,99.99
2019-01-08T02:24:28.786Z,99.99
2019-01-08T02:25:28.944Z,99.99
2019-01-08T02:26:29.554Z,99.99
2019-01-08T02:27:29.174Z,99.90
2019-01-08T02:28:29.312Z,99.79
2019-01-08T02:29:29.426Z,99.99
2019-01-08T02:30:29.597Z,99.99
2019-01-08T02:31:29.715Z,99.90
2019-01-08T02:32:29.846Z,99.79
2019-01-08T02:33:30.232Z,99.90
2019-01-08T02:34:30.420Z,99.79
2019-01-08T02:35:30.514Z,99.99
2019-01-08T02:36:30.666Z,99.99
2019-01-08T02:37:30.758Z,99.90
2019-01-08T02:38:30.908Z,99.79
2019-01-08T02:39:31.042Z,99.90
2019-01-08T02:40:31.187Z,99.90
2019-01-08T02:41:31.370Z,99.99
2019-01-08T02:42:31.439Z,99.99
2019-01-08T02:43:31.731Z,99.99
2019-01-08T02:44:31.733Z,99.99
2019-01-08T02:45:31.871Z,99.99
2019-01-08T02:46:31.986Z,99.99
2019-01-08T02:47:32.094Z,99.99
2019-01-08T02:48:32.242Z,99.99
2019-01-08T02:49:32.353Z,99.99
2019-01-08T02:50:33.058Z,99.99
2019-01-08T02:51:32.722Z,99.99
2019-01-08T02:52:32.753Z,99.99
2019-01-08T02:53:32.904Z,99.99
2019-01-08T02:54:33.034Z,99.99
2019-01-08T02:55:33.172Z,99.99
2019-01-08T02:56:33.275Z,99.99
2019-01-08T02:57:33.403Z,99.99
2019-01-08T02:58:33.555Z,99.99
2019-01-08T02:59:33.735Z,99.99
2019-01-08T03:00:33.800Z,99.99
2019-01-08T03:01:33.929Z,99.99
2019-01-08T03:02:34.053Z,99.43
2019-01-08T03:03:34.175Z,99.54
2019-01-08T03:04:34.311Z,99.54
2019-01-08T03:05:34.475Z,99.54
2019-01-08T03:06:34.576Z,99.43
2019-01-08T03:07:34.754Z,99.13
2019-01-08T03:08:34.814Z,99.13
2019-01-08T03:09:34.937Z,99.33
2019-01-08T03:10:35.127Z,99.33
2019-01-08T03:11:35.226Z,99.13
2019-01-08T03:12:35.363Z,98.92
2019-01-08T03:13:35.512Z,99.85
2019-01-08T03:14:35.609Z,99.74
2019-01-08T03:15:35.825Z,99.85
2019-01-08T03:16:35.984Z,99.02
2019-01-08T03:17:36.033Z,99.23
2019-01-08T03:18:36.180Z,99.02
2019-01-08T03:19:36.275Z,99.33
2019-01-08T03:20:36.442Z,99.33
2019-01-08T03:21:36.553Z,98.61
2019-01-08T03:22:36.718Z,98.50
2019-01-08T03:23:36.850Z,98.61
2019-01-08T03:24:37.040Z,98.50
2019-01-08T03:25:37.098Z,98.50
2019-01-08T03:26:37.212Z,98.40
2019-01-08T03:27:37.369Z,99.13
2019-01-08T03:28:37.484Z,99.13
2019-01-08T03:29:37.598Z,98.71
2019-01-08T03:30:37.720Z,98.50
2019-01-08T03:31:37.858Z,98.50
2019-01-08T03:32:38.130Z,98.09
2019-01-08T03:33:38.131Z,98.09
2019-01-08T03:34:38.251Z,98.50
2019-01-08T03:35:38.384Z,98.05
2019-01-08T03:36:38.527Z,97.53
2019-01-08T03:37:38.674Z,97.94
2019-01-08T03:38:38.827Z,97.74
2019-01-08T03:39:38.943Z,98.05
2019-01-08T03:40:39.113Z,97.94
2019-01-08T03:41:39.175Z,97.63
2019-01-08T03:42:39.334Z,98.05
2019-01-08T03:43:39.485Z,97.74
2019-01-08T03:44:39.597Z,97.32
2019-01-08T03:45:39.745Z,97.32
2019-01-08T03:46:39.878Z,97.01
2019-01-08T03:47:39.970Z,97.59
2019-01-08T03:48:40.177Z,97.79
2019-01-08T03:49:40.255Z,97.22
2019-01-08T03:50:40.473Z,97.63
2019-01-08T03:51:40.553Z,97.32
2019-01-08T03:52:40.661Z,97.32
2019-01-08T03:53:40.793Z,97.74
2019-01-08T03:54:40.922Z,97.32
2019-01-08T03:55:41.086Z,97.28
2019-01-08T03:56:41.257Z,97.22
2019-01-08T03:57:41.413Z,97.49
2019-01-08T03:58:41.458Z,97.17
2019-01-08T03:59:42.045Z,97.49
2019-01-08T04:00:41.734Z,96.86
2019-01-08T04:01:41.884Z,96.66
2019-01-08T04:02:41.977Z,96.91
2019-01-08T04:03:42.126Z,96.91
2019-01-08T04:04:42.228Z,97.01
2019-01-08T04:05:42.484Z,97.11
2019-01-08T04:06:42.541Z,97.11
2019-01-08T04:07:42.654Z,97.36
2019-01-08T04:08:42.797Z,97.11
2019-01-08T04:09:42.900Z,97.16
2019-01-08T04:10:43.044Z,97.36
2019-01-08T04:11:43.430Z,97.36
2019-01-08T04:12:43.306Z,97.16
2019-01-08T04:13:43.532Z,97.06
2019-01-08T04:14:43.536Z,97.36
2019-01-08T04:15:43.690Z,97.78
2019-01-08T04:16:43.861Z,97.88
2019-01-08T04:17:43.961Z,97.93
2019-01-08T04:18:44.109Z,97.67
2019-01-08T04:19:44.234Z,97.62
2019-01-08T04:20:44.352Z,97.93
2019-01-08T04:21:44.569Z,97.72
2019-01-08T04:22:44.594Z,97.62
2019-01-08T04:23:44.749Z,97.83
2019-01-08T04:24:44.890Z,97.83
2019-01-08T04:25:44.988Z,97.62
2019-01-08T04:26:45.152Z,97.72
2019-01-08T04:27:45.238Z,98.55
2019-01-08T04:28:45.408Z,98.44
2019-01-08T04:29:50.402Z,98.24
2019-01-08T04:30:46.678Z,97.78
2019-01-08T04:31:45.818Z,97.78
2019-01-08T04:32:45.894Z,97.78
2019-01-08T04:33:46.068Z,97.67
2019-01-08T04:34:46.169Z,97.93
2019-01-08T04:35:46.299Z,97.06
2019-01-08T04:36:46.454Z,97.36
2019-01-08T04:37:46.606Z,97.88
2019-01-08T04:38:46.792Z,97.78
2019-01-08T04:39:46.842Z,97.62
2019-01-08T04:40:46.950Z,97.47
2019-01-08T04:41:47.110Z,97.78
2019-01-08T04:42:47.211Z,97.88
2019-01-08T04:43:47.327Z,97.62
2019-01-08T04:44:47.497Z,97.83
2019-01-08T04:45:47.617Z,98.13
2019-01-08T04:46:47.911Z,97.62
2019-01-08T04:47:47.858Z,98.13
2019-01-08T04:48:47.989Z,98.24
2019-01-08T04:49:48.177Z,98.24
2019-01-08T04:50:48.264Z,98.70
2019-01-08T04:51:48.410Z,98.49
2019-01-08T04:52:48.525Z,98.28
2019-01-08T04:53:48.657Z,97.97
2019-01-08T04:54:48.857Z,98.08
2019-01-08T04:55:48.898Z,99.01
2019-01-08T04:56:49.069Z,98.33
2019-01-08T04:57:49.165Z,98.22
2019-01-08T04:58:49.297Z,98.18
2019-01-08T04:59:49.442Z,98.60
2019-01-08T05:00:49.542Z,98.49
2019-01-08T05:01:49.715Z,98.18
2019-01-08T05:02:49.900Z,97.97
2019-01-08T05:03:49.924Z,97.97
2019-01-08T05:04:50.086Z,97.77
2019-01-08T05:05:50.194Z,98.08
2019-01-08T05:06:50.336Z,97.87
2019-01-08T05:07:50.463Z,97.87
2019-01-08T05:08:50.597Z,97.91
2019-01-08T05:09:50.735Z,97.77
2019-01-08T05:10:50.892Z,97.66
2019-01-08T05:11:51.058Z,97.87
2019-01-08T05:12:51.113Z,97.71
2019-01-08T05:13:51.243Z,97.66
2019-01-08T05:14:51.393Z,97.87
2019-01-08T05:15:51.503Z,97.14
2019-01-08T05:16:51.673Z,97.45
2019-01-08T05:17:51.754Z,97.77
2019-01-08T05:18:51.904Z,97.14
2019-01-08T05:19:52.148Z,97.50
2019-01-08T05:20:52.154Z,97.25
2019-01-08T05:21:52.306Z,97.25
2019-01-08T05:22:52.411Z,97.25
2019-01-08T05:23:52.556Z,97.45
2019-01-08T05:24:52.712Z,97.35
2019-01-08T05:25:52.833Z,97.25
2019-01-08T05:26:52.993Z,97.45
2019-01-08T05:27:53.195Z,97.77
2019-01-08T05:28:53.208Z,97.71
2019-01-08T05:29:53.357Z,97.56
2019-01-08T05:30:53.494Z,97.29
2019-01-08T05:31:53.639Z,97.19
2019-01-08T05:32:53.725Z,97.35
2019-01-08T05:33:53.859Z,97.14
2019-01-08T05:34:54.012Z,97.14
2019-01-08T05:35:54.177Z,96.94
2019-01-08T05:36:54.270Z,96.94
2019-01-08T05:37:54.372Z,96.94
2019-01-08T05:38:54.504Z,97.04
2019-01-08T05:39:54.637Z,97.10
2019-01-08T05:40:54.768Z,96.17
2019-01-08T05:41:54.913Z,96.11
2019-01-08T05:42:55.022Z,96.11
2019-01-08T05:43:55.219Z,95.96
2019-01-08T05:44:55.286Z,95.90
2019-01-08T05:45:55.419Z,95.86
2019-01-08T05:46:55.597Z,95.75
2019-01-08T05:47:55.716Z,95.65
2019-01-08T05:48:56.091Z,95.65
2019-01-08T05:49:55.992Z,95.54
2019-01-08T05:50:56.108Z,95.44
2019-01-08T05:51:56.263Z,95.19
2019-01-08T05:52:56.515Z,95.34
2019-01-08T05:53:56.516Z,94.89
2019-01-08T05:54:56.665Z,94.89
2019-01-08T05:55:56.850Z,94.98
2019-01-08T05:56:56.909Z,95.24
2019-01-08T05:57:57.072Z,94.98
2019-01-08T05:58:57.178Z,95.14
2019-01-08T05:59:57.329Z,95.29
2019-01-08T06:00:57.587Z,95.65
2019-01-08T06:01:57.573Z,95.71
2019-01-08T06:02:57.721Z,95.50
2019-01-08T06:03:57.844Z,95.61
2019-01-08T06:04:57.977Z,94.89
2019-01-08T06:05:58.128Z,95.40
2019-01-08T06:06:58.217Z,95.40
2019-01-08T06:07:58.378Z,94.89
2019-01-08T06:08:58.561Z,94.68
2019-01-08T06:09:58.629Z,94.68
2019-01-08T06:10:58.766Z,94.78
2019-01-08T06:11:58.859Z,94.98
2019-01-08T06:12:59.017Z,95.09
2019-01-08T06:13:59.137Z,95.19
2019-01-08T06:14:59.282Z,95.09
2019-01-08T06:15:59.396Z,94.06
2019-01-08T06:16:59.566Z,94.06
2019-01-08T06:17:59.642Z,93.43
2019-01-08T06:18:59.779Z,93.29
2019-01-08T06:19:59.934Z,93.33
2019-01-08T06:21:00.048Z,93.64
2019-01-08T06:22:00.204Z,94.63
2019-01-08T06:23:00.335Z,93.29
2019-01-08T06:24:00.435Z,93.60
2019-01-08T06:25:00.928Z,93.80
2019-01-08T06:26:00.755Z,94.06
2019-01-08T06:27:00.853Z,93.70
2019-01-08T06:28:01.009Z,94.12
2019-01-08T06:29:01.106Z,94.22
2019-01-08T06:30:01.244Z,94.26
2019-01-08T06:31:01.370Z,94.47
2019-01-08T06:32:01.509Z,93.64
2019-01-08T06:33:01.665Z,93.95
2019-01-08T06:34:01.910Z,93.29
2019-01-08T06:35:01.900Z,95.15
2019-01-08T06:36:02.022Z,95.15
2019-01-08T06:37:02.165Z,95.19
2019-01-08T06:38:02.319Z,94.89
2019-01-08T06:39:02.410Z,95.29
2019-01-08T06:40:02.555Z,95.29
2019-01-08T06:41:02.658Z,95.40
2019-01-08T06:42:02.945Z,95.81
2019-01-08T06:43:02.949Z,96.23
2019-01-08T06:44:03.586Z,95.92
2019-01-08T06:45:03.179Z,95.29
2019-01-08T06:46:03.382Z,95.92
2019-01-08T06:47:03.466Z,95.71
2019-01-08T06:48:03.599Z,95.81
2019-01-08T06:49:03.714Z,95.92
2019-01-08T06:50:03.884Z,95.40
2019-01-08T06:51:03.945Z,95.71
2019-01-08T06:52:04.114Z,95.92
2019-01-08T06:53:04.277Z,95.19
2019-01-08T06:54:08.924Z,95.71
2019-01-08T06:55:04.519Z,95.40
2019-01-08T06:56:04.637Z,95.71
2019-01-08T06:57:04.764Z,95.71
2019-01-08T06:58:05.005Z,95.50
2019-01-08T06:59:05.019Z,95.50
2019-01-08T07:00:05.142Z,94.89
2019-01-08T07:01:05.272Z,94.89
2019-01-08T07:02:05.407Z,94.37
2019-01-08T07:03:05.578Z,95.19
2019-01-08T07:04:05.662Z,95.19
2019-01-08T07:05:05.800Z,95.09
2019-01-08T07:06:05.983Z,94.16
2019-01-08T07:07:06.176Z,95.19
2019-01-08T07:08:06.259Z,94.89
2019-01-08T07:09:06.337Z,95.29
2019-01-08T07:10:06.479Z,94.16
2019-01-08T07:11:06.629Z,93.74
2019-01-08T07:12:06.742Z,93.85
2019-01-08T07:13:06.893Z,94.12
2019-01-08T07:14:07.013Z,93.80
2019-01-08T07:15:07.242Z,93.64
2019-01-08T07:16:07.286Z,94.06
2019-01-08T07:17:07.415Z,93.60
2019-01-08T07:18:07.567Z,93.80
2019-01-08T07:19:07.632Z,93.29
2019-01-08T07:20:07.771Z,93.29
2019-01-08T07:21:07.936Z,93.39
2019-01-08T07:22:08.143Z,93.70
2019-01-08T07:23:08.318Z,92.50
2019-01-08T07:24:08.291Z,92.19
2019-01-08T07:25:08.441Z,93.39
2019-01-08T07:26:08.823Z,93.33
2019-01-08T07:27:16.141Z,93.18
2019-01-08T07:28:10.748Z,93.29
2019-01-08T07:29:08.964Z,93.60
2019-01-08T07:30:09.094Z,93.33
2019-01-08T07:31:09.264Z,93.18
2019-01-08T07:32:09.339Z,93.33
2019-01-08T07:33:09.495Z,93.29
2019-01-08T07:34:09.632Z,93.29
2019-01-08T07:35:09.740Z,93.33
2019-01-08T07:36:09.888Z,92.46
2019-01-08T07:37:09.987Z,92.87
2019-01-08T07:38:10.143Z,93.49
2019-01-08T07:39:10.337Z,92.97
2019-01-08T07:40:10.398Z,93.39
2019-01-08T07:41:10.572Z,92.15
2019-01-08T07:42:10.673Z,92.25
2019-01-08T07:43:10.804Z,92.97
2019-01-08T07:44:10.952Z,93.39
2019-01-08T07:45:11.070Z,93.08
2019-01-08T07:46:11.216Z,93.18
2019-01-08T07:47:11.566Z,92.97
2019-01-08T07:48:11.525Z,93.29
2019-01-08T07:49:11.583Z,93.29
2019-01-08T07:50:11.703Z,93.39
2019-01-08T07:51:11.852Z,93.08
2019-01-08T07:52:11.969Z,93.33
2019-01-08T07:53:12.114Z,93.70
2019-01-08T07:54:12.218Z,93.60
2019-01-08T07:55:12.362Z,93.49
2019-01-08T07:56:12.586Z,93.29
2019-01-08T07:57:12.605Z,93.29
2019-01-08T07:58:12.747Z,93.08
2019-01-08T07:59:12.856Z,93.29
2019-01-08T08:00:13.006Z,92.67
2019-01-08T08:01:13.145Z,92.52
2019-01-08T08:02:13.269Z,93.49
2019-01-08T08:03:13.426Z,92.77
2019-01-08T08:04:13.594Z,92.21
2019-01-08T08:05:13.642Z,92.36
2019-01-08T08:06:13.780Z,92.36
2019-01-08T08:07:13.911Z,92.46
2019-01-08T08:08:14.075Z,92.36
2019-01-08T08:09:14.185Z,93.29
2019-01-08T08:10:14.282Z,93.18
2019-01-08T08:11:14.444Z,93.29
2019-01-08T08:12:14.611Z,92.46
2019-01-08T08:13:14.672Z,93.29
2019-01-08T08:14:14.817Z,92.97
2019-01-08T08:15:14.937Z,93.29
2019-01-08T08:16:15.064Z,93.18
2019-01-08T08:17:15.193Z,93.18
2019-01-08T08:18:15.340Z,93.70
2019-01-08T08:19:15.484Z,93.60
2019-01-08T08:20:15.645Z,93.39
2019-01-08T08:21:15.761Z,93.74
2019-01-08T08:22:15.863Z,93.91
2019-01-08T08:23:16.017Z,93.74
2019-01-08T08:24:16.166Z,93.80
2019-01-08T08:25:16.277Z,94.12
2019-01-08T08:26:16.427Z,94.16
2019-01-08T08:27:16.522Z,94.47
2019-01-08T08:28:16.677Z,95.09
2019-01-08T08:29:16.950Z,94.89
2019-01-08T08:30:16.944Z,94.89
2019-01-08T08:31:17.090Z,94.89
2019-01-08T08:32:17.189Z,95.50
2019-01-08T08:33:17.335Z,95.81
2019-01-08T08:34:17.504Z,95.40
2019-01-08T08:35:17.593Z,95.40
2019-01-08T08:36:17.737Z,95.71
2019-01-08T08:37:17.987Z,95.29
2019-01-08T08:38:17.989Z,95.40
2019-01-08T08:39:18.158Z,95.61
2019-01-08T08:40:18.253Z,94.89
2019-01-08T08:41:18.397Z,95.09
2019-01-08T08:42:18.510Z,95.29
2019-01-08T08:43:18.627Z,95.65
2019-01-08T08:44:18.803Z,95.86
2019-01-08T08:45:18.939Z,96.02
2019-01-08T08:46:18.954Z,95.71
2019-01-08T08:47:19.080Z,95.54
2019-01-08T08:48:19.198Z,95.40
2019-01-08T08:49:19.383Z,95.09
2019-01-08T08:50:19.449Z,95.50
2019-01-08T08:51:19.638Z,95.19
2019-01-08T08:52:19.701Z,95.29
2019-01-08T08:53:20.112Z,95.19
2019-01-08T08:54:20.048Z,95.04
2019-01-08T08:55:20.147Z,94.98
2019-01-08T08:56:20.301Z,95.04
2019-01-08T08:57:20.407Z,94.94
2019-01-08T08:58:20.544Z,93.97
2019-01-08T08:59:20.688Z,93.70
2019-01-08T09:00:20.827Z,93.66
2019-01-08T09:01:20.990Z,93.24
2019-01-08T09:02:21.139Z,93.35
2019-01-08T09:03:21.198Z,93.24
2019-01-08T09:04:21.330Z,92.83
2019-01-08T09:05:21.467Z,93.55
2019-01-08T09:06:21.831Z,93.70
2019-01-08T09:07:21.723Z,93.80
2019-01-08T09:08:21.865Z,93.55
2019-01-08T09:09:22.008Z,94.01
2019-01-08T09:10:22.204Z,93.60
2019-01-08T09:11:22.266Z,93.39
2019-01-08T09:12:22.380Z,93.70
2019-01-08T09:13:22.542Z,93.91
2019-01-08T09:14:22.656Z,94.22
2019-01-08T09:15:22.758Z,95.15
2019-01-08T09:16:22.908Z,94.22
2019-01-08T09:17:23.029Z,93.80
2019-01-08T09:18:23.423Z,93.70
2019-01-08T09:19:23.304Z,94.32
2019-01-08T09:20:23.405Z,94.22
2019-01-08T09:21:23.550Z,93.39
2019-01-08T09:22:23.695Z,93.70
2019-01-08T09:23:23.858Z,93.49
2019-01-08T09:24:23.993Z,93.66
2019-01-08T09:25:24.120Z,93.80
2019-01-08T09:26:24.252Z,93.60
2019-01-08T09:27:24.365Z,93.66
2019-01-08T09:28:24.499Z,93.66
2019-01-08T09:29:24.647Z,93.91
2019-01-08T09:30:24.781Z,94.38
2019-01-08T09:31:24.891Z,94.07
2019-01-08T09:32:25.017Z,94.53
2019-01-08T09:33:25.141Z,94.94
2019-01-08T09:34:25.343Z,94.94
2019-01-08T09:35:25.455Z,95.56
2019-01-08T09:36:25.556Z,95.36
2019-01-08T09:37:25.702Z,95.46
2019-01-08T09:38:25.790Z,95.46
2019-01-08T09:39:25.963Z,96.12
2019-01-08T09:40:26.087Z,95.81
2019-01-08T09:41:26.201Z,94.94
2019-01-08T09:42:26.380Z,95.77
2019-01-08T09:43:26.546Z,96.39
2019-01-08T09:44:26.609Z,95.71
2019-01-08T09:45:26.739Z,95.77
2019-01-08T09:46:26.852Z,96.33
2019-01-08T09:47:27.001Z,95.15
2019-01-08T09:48:27.111Z,95.25
2019-01-08T09:49:27.248Z,95.61
2019-01-08T09:50:27.390Z,95.40
2019-01-08T09:51:27.642Z,95.61
2019-01-08T09:52:27.648Z,95.67
2019-01-08T09:53:27.752Z,96.02
2019-01-08T09:54:27.902Z,95.77
2019-01-08T09:55:28.038Z,95.81
2019-01-08T09:56:28.163Z,95.81
2019-01-08T09:57:28.307Z,95.87
2019-01-08T09:58:28.422Z,96.54
2019-01-08T09:59:28.609Z,96.49
2019-01-08T10:00:28.663Z,96.02
2019-01-08T10:01:28.795Z,95.87
2019-01-08T10:02:28.948Z,95.87
2019-01-08T10:03:29.052Z,95.46
2019-01-08T10:04:29.226Z,95.77
2019-01-08T10:05:29.326Z,95.04
2019-01-08T10:06:29.451Z,95.67
2019-01-08T10:07:29.646Z,95.50
2019-01-08T10:08:29.716Z,94.89
2019-01-08T10:09:29.861Z,94.94
2019-01-08T10:10:29.980Z,95.25
2019-01-08T10:11:30.086Z,95.25
2019-01-08T10:12:30.253Z,94.78
2019-01-08T10:13:30.372Z,95.19
2019-01-08T10:14:30.535Z,94.06
2019-01-08T10:15:30.705Z,94.26
2019-01-08T10:16:30.782Z,94.43
2019-01-08T10:17:30.907Z,94.73
2019-01-08T10:18:31.022Z,95.04
2019-01-08T10:19:31.170Z,94.94
2019-01-08T10:20:31.291Z,94.94
2019-01-08T10:21:31.424Z,94.22
2019-01-08T10:22:31.544Z,94.22
2019-01-08T10:23:31.668Z,94.94
2019-01-08T10:24:31.926Z,95.25
2019-01-08T10:25:31.931Z,94.90
2019-01-08T10:26:32.063Z,95.00
2019-01-08T10:27:32.194Z,95.04
2019-01-08T10:28:32.322Z,94.01
2019-01-08T10:29:32.481Z,93.76
2019-01-08T10:30:32.613Z,95.15
2019-01-08T10:31:32.914Z,95.15
2019-01-08T10:32:32.986Z,95.04
2019-01-08T10:33:32.994Z,94.79
2019-01-08T10:34:33.132Z,95.25
2019-01-08T10:35:33.278Z,95.25
2019-01-08T10:36:33.398Z,95.67
2019-01-08T10:37:33.538Z,95.25
2019-01-08T10:38:33.623Z,95.25
2019-01-08T10:39:33.790Z,95.56
2019-01-08T10:40:33.968Z,96.86
2019-01-08T10:41:34.024Z,95.10
2019-01-08T10:42:34.178Z,95.15
2019-01-08T10:43:34.290Z,95.04
2019-01-08T10:44:34.416Z,95.00
2019-01-08T10:45:34.796Z,94.90
2019-01-08T10:46:37.601Z,94.48
2019-01-08T10:47:34.829Z,95.00
2019-01-08T10:48:34.996Z,95.00
2019-01-08T10:49:35.067Z,94.69
2019-01-08T10:50:35.203Z,95.25
2019-01-08T10:51:35.337Z,95.52
2019-01-08T10:52:35.475Z,95.46
2019-01-08T10:53:35.590Z,95.31
2019-01-08T10:54:35.713Z,95.36
2019-01-08T10:55:35.884Z,95.25
2019-01-08T10:56:35.997Z,95.04
2019-01-08T10:57:36.198Z,95.21
2019-01-08T10:58:36.239Z,95.31
2019-01-08T10:59:36.368Z,94.79
2019-01-08T11:00:36.524Z,95.00
2019-01-08T11:01:40.441Z,95.10
2019-01-08T11:02:36.776Z,94.69
2019-01-08T11:03:36.904Z,94.79
2019-01-08T11:04:37.036Z,95.04
2019-01-08T11:05:37.404Z,95.42
2019-01-08T11:06:37.297Z,95.15
2019-01-08T11:07:37.437Z,95.10
2019-01-08T11:08:37.549Z,95.15
2019-01-08T11:09:37.686Z,95.77
2019-01-08T11:10:37.843Z,96.34
2019-01-08T11:11:37.958Z,96.70
2019-01-08T11:12:38.095Z,96.70
2019-01-08T11:13:38.270Z,95.98
2019-01-08T11:14:38.346Z,95.36
2019-01-08T11:15:38.505Z,95.98
2019-01-08T11:16:38.593Z,95.87
2019-01-08T11:17:38.741Z,96.70
2019-01-08T11:18:38.857Z,96.91
2019-01-08T11:19:39.006Z,96.39
2019-01-08T11:20:39.164Z,96.08
2019-01-08T11:21:39.314Z,95.77
2019-01-08T11:22:39.391Z,95.46
2019-01-08T11:23:39.495Z,95.46
2019-01-08T11:24:39.644Z,95.42
2019-01-08T11:25:39.821Z,95.10
2019-01-08T11:26:39.928Z,95.31
2019-01-08T11:27:40.041Z,95.52
2019-01-08T11:28:40.177Z,95.56
2019-01-08T11:29:40.348Z,95.67
2019-01-08T11:30:40.517Z,95.46
2019-01-08T11:31:48.602Z,96.19
2019-01-08T11:32:41.699Z,96.86
2019-01-08T11:33:40.858Z,95.15
2019-01-08T11:34:40.985Z,95.36
2019-01-08T11:35:42.313Z,95.67
2019-01-08T11:36:41.245Z,95.56
2019-01-08T11:37:41.403Z,94.79
2019-01-08T11:38:41.652Z,95.42
2019-01-08T11:39:41.652Z,94.63
2019-01-08T11:40:41.816Z,94.79
2019-01-08T11:41:41.945Z,93.87
2019-01-08T11:42:42.058Z,95.21
2019-01-08T11:43:42.213Z,95.00
2019-01-08T11:44:42.319Z,95.21
2019-01-08T11:45:42.463Z,94.18
2019-01-08T11:46:42.680Z,95.10
2019-01-08T11:47:42.710Z,94.79
2019-01-08T11:48:42.861Z,95.21
2019-01-08T11:49:42.975Z,95.42
2019-01-08T11:50:43.123Z,95.21
2019-01-08T11:51:43.231Z,95.31
2019-01-08T11:52:43.385Z,95.21
2019-01-08T11:53:43.515Z,95.62
2019-01-08T11:54:43.671Z,96.24
2019-01-08T11:55:43.766Z,95.67
2019-01-08T11:56:43.888Z,95.42
2019-01-08T11:57:44.001Z,96.03
2019-01-08T11:58:44.181Z,96.66
2019-01-08T11:59:44.286Z,95.62
2019-01-08T12:00:44.432Z,96.49
2019-01-08T12:01:44.566Z,96.70
2019-01-08T12:02:47.894Z,96.14
2019-01-08T12:03:44.793Z,96.39
2019-01-08T12:04:44.915Z,95.94
2019-01-08T12:05:45.062Z,95.62
2019-01-08T12:06:45.211Z,95.83
2019-01-08T12:07:45.310Z,95.62
2019-01-08T12:08:45.449Z,94.79
2019-01-08T12:09:45.570Z,95.10
2019-01-08T12:10:45.786Z,95.10
2019-01-08T12:11:45.923Z,94.23
2019-01-08T12:12:45.987Z,94.69
2019-01-08T12:13:46.119Z,93.97
2019-01-08T12:14:46.249Z,94.69
2019-01-08T12:15:46.417Z,94.38
2019-01-08T12:16:46.523Z,95.10
2019-01-08T12:17:46.654Z,94.90
2019-01-08T12:18:47.031Z,94.69
2019-01-08T12:19:47.024Z,95.62
2019-01-08T12:20:47.088Z,95.62
2019-01-08T12:21:53.868Z,96.76
2019-01-08T12:22:58.240Z,95.52
2019-01-08T12:23:48.917Z,95.31
2019-01-08T12:24:47.784Z,95.42
2019-01-08T12:25:47.701Z,95.21
2019-01-08T12:26:47.854Z,95.52
2019-01-08T12:27:48.077Z,95.31
2019-01-08T12:28:48.097Z,95.31
2019-01-08T12:29:48.198Z,95.21
2019-01-08T12:30:48.346Z,95.31
2019-01-08T12:31:48.493Z,94.44
2019-01-08T12:32:48.621Z,94.85
2019-01-08T12:33:48.769Z,94.85
2019-01-08T12:34:48.882Z,94.75
2019-01-08T12:35:49.042Z,95.06
2019-01-08T12:36:49.569Z,95.06
2019-01-08T12:37:49.291Z,93.82
2019-01-08T12:38:49.439Z,94.44
2019-01-08T12:39:49.554Z,93.93
2019-01-08T12:40:49.682Z,94.23
2019-01-08T12:41:49.832Z,94.03
2019-01-08T12:42:49.942Z,94.44
2019-01-08T12:43:50.150Z,94.34
2019-01-08T12:44:50.207Z,94.85
2019-01-08T12:45:50.340Z,95.37
2019-01-08T12:46:50.523Z,95.57
2019-01-08T12:47:50.613Z,95.42
2019-01-08T12:48:50.755Z,95.06
2019-01-08T12:49:50.869Z,95.68
2019-01-08T12:50:51.000Z,95.21
2019-01-08T12:51:51.166Z,95.00
2019-01-08T12:52:51.368Z,94.44
2019-01-08T12:53:51.411Z,94.96